Alango, Minnesota
Current Conditions -  °F | °C
As of 12:54 PM on Friday 28 Nov 2014 (Local Time) from KCQM Reporting Station
Light Snow Light Snow  
Wind Chill: 14°   Ceiling: 1600
Heat Index: 14°   Visibility: 7mi
Dew Point:   Wind: 0mph
Humidity: 79%   Direction: NA
Pressure: 29.9"   Gusts: NA
Location:  47.7453°N, 92.7634°W
Report Text: KCQM 281854Z AUTO 00000KT 7SM -SN OVC016 M10/M13 A2990 RMK AO2
Loading
Personal Weather Stations






























Interactive Weather Map New forecast layout! Learn more

10-Day Weather Forecast

Advertisements
Track Severe Weather on mobile